Time;durP1;ratioP1;P1;durP2;ratioP2;P2;SDS_P1;SDS_P2;PMS_P1;PMS_P2;Temp;Humidity;BMP_temperature;BMP_pressure;BME280_temperature;BME280_humidity;BME280_pressure;Samples;Min_cycle;Max_cycle;Signal;HPM_P1;HPM_P2
2021/05/09 00:02:20;;;;;;;4.30;4.00;;;11.60;95.00;;;;;;5046405;28;20225;-64
2021/05/09 00:04:47;;;;;;;3.75;3.45;;;11.80;94.60;;;;;;5052873;28;20212;-63
2021/05/09 00:07:13;;;;;;;4.15;3.85;;;11.90;94.30;;;;;;5057526;28;20258;-64
2021/05/09 00:09:40;;;;;;;4.75;4.35;;;11.80;94.40;;;;;;5047493;28;20248;-63
2021/05/09 00:12:08;;;;;;;3.90;3.70;;;11.70;94.80;;;;;;5045123;28;20208;-64
2021/05/09 00:14:35;;;;;;;4.45;4.13;;;11.70;94.70;;;;;;5046064;28;20237;-64
2021/05/09 00:17:02;;;;;;;4.78;4.25;;;11.70;94.90;;;;;;5044261;28;20210;-64
2021/05/09 00:19:28;;;;;;;4.22;3.92;;;11.50;95.20;;;;;;5047694;28;20206;-64
2021/05/09 00:21:54;;;;;;;4.25;3.95;;;11.50;95.30;;;;;;5038537;28;20308;-64
2021/05/09 00:24:21;;;;;;;4.30;4.00;;;11.40;95.40;;;;;;5051893;28;20689;-63
2021/05/09 00:26:47;;;;;;;5.28;4.50;;;11.50;95.40;;;;;;5058440;28;20212;-64
2021/05/09 00:29:13;;;;;;;6.05;5.40;;;11.40;95.50;;;;;;5042114;28;20207;-63
2021/05/09 00:31:39;;;;;;;5.72;5.10;;;11.50;95.40;;;;;;5049993;28;20797;-64
2021/05/09 00:34:07;;;;;;;6.25;5.65;;;11.40;95.70;;;;;;5047393;28;21333;-63
2021/05/09 00:36:33;;;;;;;5.15;4.75;;;11.20;96.10;;;;;;5045404;28;20949;-64
2021/05/09 00:38:59;;;;;;;4.70;4.40;;;11.30;96.10;;;;;;5050747;28;20202;-63
2021/05/09 00:41:25;;;;;;;3.97;3.67;;;11.30;96.10;;;;;;5038669;28;20206;-64
2021/05/09 00:43:52;;;;;;;4.25;3.95;;;11.20;96.50;;;;;;5053518;28;20225;-63
2021/05/09 00:46:18;;;;;;;4.78;4.32;;;11.10;96.40;;;;;;5045526;28;20736;-64
2021/05/09 00:48:45;;;;;;;4.65;4.07;;;11.00;96.80;;;;;;5042480;28;20210;-63
2021/05/09 00:51:13;;;;;;;5.78;5.00;;;11.00;96.80;;;;;;5045715;28;20236;-63
2021/05/09 00:53:43;;;;;;;4.63;4.30;;;11.00;97.00;;;;;;5044375;28;20263;-63
2021/05/09 00:56:13;;;;;;;4.85;4.50;;;11.00;97.10;;;;;;5036951;28;20217;-63
2021/05/09 00:58:43;;;;;;;5.15;4.75;;;10.90;97.20;;;;;;5045389;28;20209;-63
2021/05/09 01:01:10;;;;;;;4.15;3.85;;;10.90;97.00;;;;;;5045578;28;20206;-63
2021/05/09 01:03:39;;;;;;;5.95;3.63;;;10.90;97.20;;;;;;5041277;28;20220;-63
2021/05/09 01:06:06;;;;;;;3.35;3.05;;;10.90;97.20;;;;;;5042196;28;20198;-63
2021/05/09 01:08:36;;;;;;;4.35;4.05;;;11.00;96.90;;;;;;5044240;28;20233;-63
2021/05/09 01:11:02;;;;;;;3.42;3.13;;;11.00;96.90;;;;;;5052431;28;20216;-63
2021/05/09 01:13:29;;;;;;;3.67;3.47;;;11.10;96.80;;;;;;5045149;28;20206;-63
2021/05/09 01:15:55;;;;;;;4.45;4.15;;;11.10;96.60;;;;;;5042872;28;20278;-63
2021/05/09 01:18:21;;;;;;;3.80;3.50;;;11.20;96.30;;;;;;5044317;28;20235;-63
2021/05/09 01:20:49;;;;;;;3.92;3.63;;;11.20;96.60;;;;;;5045504;28;20651;-63
2021/05/09 01:23:15;;;;;;;4.93;4.53;;;11.20;96.50;;;;;;5044057;28;20328;-63
2021/05/09 01:25:41;;;;;;;4.93;4.53;;;11.20;96.40;;;;;;5043298;28;20201;-63
2021/05/09 01:28:08;;;;;;;5.00;4.50;;;11.20;96.50;;;;;;5040432;28;20209;-62
2021/05/09 01:30:35;;;;;;;5.47;5.07;;;11.20;96.30;;;;;;5044690;28;20228;-63
2021/05/09 01:33:01;;;;;;;4.88;4.47;;;11.30;96.40;;;;;;5051756;28;20208;-62
2021/05/09 01:35:28;;;;;;;4.63;4.32;;;11.20;96.50;;;;;;5040039;28;20655;-63
2021/05/09 01:37:55;;;;;;;5.90;5.40;;;11.10;96.90;;;;;;5036306;28;20306;-63
2021/05/09 01:40:21;;;;;;;5.50;4.97;;;11.10;97.00;;;;;;5048553;28;20206;-63
2021/05/09 01:42:48;;;;;;;6.07;4.80;;;11.00;97.30;;;;;;5043110;28;20725;-63
2021/05/09 01:45:15;;;;;;;5.65;5.15;;;10.90;97.70;;;;;;5048351;28;20216;-63
2021/05/09 01:47:41;;;;;;;5.00;4.15;;;10.90;97.60;;;;;;5044810;28;20249;-63
2021/05/09 01:50:11;;;;;;;5.60;5.20;;;10.80;97.50;;;;;;5047681;28;20210;-62
2021/05/09 01:52:38;;;;;;;5.88;4.97;;;10.80;97.50;;;;;;5040294;28;20571;-63
2021/05/09 01:55:08;;;;;;;5.28;4.78;;;10.80;97.40;;;;;;5047282;28;20655;-63
2021/05/09 01:57:34;;;;;;;5.65;5.25;;;10.80;97.60;;;;;;5048900;28;20205;-63
2021/05/09 02:00:01;;;;;;;4.90;4.50;;;10.90;97.60;;;;;;5048422;28;20292;-63
2021/05/09 02:02:27;;;;;;;4.40;4.10;;;10.80;97.40;;;;;;5038611;28;20206;-63
2021/05/09 02:04:53;;;;;;;4.72;4.32;;;10.80;97.50;;;;;;5051245;28;20198;-63
2021/05/09 02:07:20;;;;;;;4.53;4.22;;;10.80;97.60;;;;;;5048346;28;20237;-63
2021/05/09 02:09:46;;;;;;;5.25;4.85;;;10.70;97.70;;;;;;5048534;28;20300;-63
2021/05/09 02:12:13;;;;;;;5.18;4.82;;;10.60;97.80;;;;;;5048913;28;20660;-63
2021/05/09 02:14:40;;;;;;;4.85;4.43;;;10.60;98.20;;;;;;5046942;28;20233;-63
2021/05/09 02:17:07;;;;;;;5.25;4.75;;;10.50;98.20;;;;;;5045374;28;20328;-63
2021/05/09 02:19:33;;;;;;;5.22;4.82;;;10.50;98.20;;;;;;5048311;28;20210;-63
2021/05/09 02:21:59;;;;;;;5.28;4.88;;;10.50;98.30;;;;;;5048955;28;20636;-65
2021/05/09 02:24:26;;;;;;;5.20;4.90;;;10.40;98.30;;;;;;5046456;28;20229;-65
2021/05/09 02:26:52;;;;;;;4.82;4.43;;;10.40;98.50;;;;;;5046434;28;20323;-65
2021/05/09 02:29:19;;;;;;;5.32;4.68;;;10.40;98.60;;;;;;5043752;28;20297;-65
2021/05/09 02:31:46;;;;;;;4.68;4.28;;;10.30;98.70;;;;;;5047237;28;20208;-65
2021/05/09 02:34:12;;;;;;;5.03;4.65;;;10.30;98.80;;;;;;5048098;28;20844;-65
2021/05/09 02:36:38;;;;;;;5.30;4.80;;;10.30;98.70;;;;;;5046335;28;20205;-64
2021/05/09 02:39:05;;;;;;;5.40;4.90;;;10.30;98.90;;;;;;5047624;28;20212;-65
2021/05/09 02:41:31;;;;;;;5.65;5.25;;;10.30;98.70;;;;;;5047866;28;20210;-65
2021/05/09 02:43:57;;;;;;;5.72;5.22;;;10.30;99.10;;;;;;5045934;28;20668;-65
2021/05/09 02:46:24;;;;;;;5.60;5.13;;;10.20;99.50;;;;;;5046538;28;20221;-65
2021/05/09 02:48:51;;;;;;;4.97;4.57;;;10.10;99.50;;;;;;5040697;28;20198;-65
2021/05/09 02:51:18;;;;;;;5.50;5.15;;;10.20;99.70;;;;;;5045624;28;20202;-65
2021/05/09 02:53:45;;;;;;;5.70;5.15;;;10.10;99.80;;;;;;5044118;28;20197;-65
2021/05/09 02:56:11;;;;;;;5.03;3.95;;;10.20;99.70;;;;;;5042860;28;20206;-64
2021/05/09 02:58:37;;;;;;;5.00;4.60;;;10.20;99.60;;;;;;5042571;28;20744;-65
2021/05/09 03:01:04;;;;;;;7.45;4.88;;;10.20;99.80;;;;;;5047419;28;20202;-65
2021/05/09 03:03:31;;;;;;;5.60;5.20;;;10.30;99.80;;;;;;5045267;28;20233;-65
2021/05/09 03:05:57;;;;;;;5.45;4.90;;;10.30;99.90;;;;;;5046010;28;20202;-63
2021/05/09 03:08:24;;;;;;;4.95;4.65;;;10.20;99.90;;;;;;5045596;28;20285;-65
2021/05/09 03:10:50;;;;;;;5.13;4.63;;;10.20;99.70;;;;;;5040299;28;20813;-64
2021/05/09 03:13:17;;;;;;;4.93;4.53;;;10.30;99.70;;;;;;5047222;28;20680;-64
2021/05/09 03:15:43;;;;;;;6.43;5.35;;;10.30;99.90;;;;;;5045278;28;20735;-64
2021/05/09 03:18:09;;;;;;;5.10;4.70;;;10.30;99.70;;;;;;5047404;28;20209;-64
2021/05/09 03:20:37;;;;;;;5.45;5.15;;;10.30;99.70;;;;;;5047300;28;20251;-64
2021/05/09 03:23:03;;;;;;;5.20;4.80;;;10.30;99.80;;;;;;5046872;28;20902;-65
2021/05/09 03:25:30;;;;;;;5.65;4.60;;;10.30;99.90;;;;;;5045347;28;20220;-64
2021/05/09 03:27:56;;;;;;;5.70;5.20;;;10.20;99.90;;;;;;5046738;28;20544;-64
2021/05/09 03:30:23;;;;;;;5.05;4.65;;;10.20;99.90;;;;;;5040734;28;20205;-64
2021/05/09 03:32:49;;;;;;;5.80;5.40;;;10.20;99.90;;;;;;5048242;28;20209;-64
2021/05/09 03:35:15;;;;;;;5.55;5.05;;;10.20;99.90;;;;;;5044690;28;20693;-65
2021/05/09 03:37:42;;;;;;;4.82;4.40;;;10.20;99.90;;;;;;5054459;28;20205;-65
2021/05/09 03:40:10;;;;;;;6.10;4.70;;;10.20;99.90;;;;;;5051123;28;20198;-65
2021/05/09 03:42:36;;;;;;;4.93;4.55;;;10.20;99.90;;;;;;5046571;28;20198;-65
2021/05/09 03:45:03;;;;;;;4.72;4.32;;;10.20;99.90;;;;;;5045775;28;20564;-65
2021/05/09 03:47:30;;;;;;;4.63;4.22;;;10.20;99.90;;;;;;5045975;28;20679;-64
2021/05/09 03:49:57;;;;;;;6.68;5.55;;;10.20;99.90;;;;;;5045475;28;20216;-64
2021/05/09 03:52:24;;;;;;;9.95;4.95;;;10.20;99.90;;;;;;5046139;28;20202;-65
2021/05/09 03:54:52;;;;;;;8.27;5.07;;;10.30;99.90;;;;;;5040846;28;20248;-65
2021/05/09 03:57:18;;;;;;;5.63;5.00;;;10.30;99.90;;;;;;5046366;28;20205;-65
2021/05/09 03:59:45;;;;;;;7.65;5.30;;;10.30;99.90;;;;;;5046106;28;20198;-65
2021/05/09 04:02:11;;;;;;;6.03;4.78;;;10.30;99.90;;;;;;5040863;28;20214;-65
2021/05/09 04:04:38;;;;;;;4.90;4.50;;;10.30;99.90;;;;;;5045006;28;20615;-64
2021/05/09 04:07:04;;;;;;;5.40;4.90;;;10.30;99.90;;;;;;5045845;28;20194;-64
2021/05/09 04:09:31;;;;;;;4.80;4.50;;;10.30;99.90;;;;;;5045858;28;20275;-64
2021/05/09 04:11:58;;;;;;;5.35;4.65;;;10.30;99.90;;;;;;5046019;28;20205;-64
2021/05/09 04:14:24;;;;;;;5.38;4.97;;;10.50;99.80;;;;;;5045123;28;20298;-65
2021/05/09 04:16:51;;;;;;;4.70;4.30;;;10.50;99.70;;;;;;5045122;28;20225;-64
2021/05/09 04:19:17;;;;;;;5.38;4.93;;;10.40;99.90;;;;;;5046400;28;20663;-65
2021/05/09 04:21:44;;;;;;;5.18;4.78;;;10.50;99.90;;;;;;5037942;28;20209;-65
2021/05/09 04:24:11;;;;;;;5.65;5.25;;;10.50;99.60;;;;;;5047485;28;20259;-65
2021/05/09 04:26:38;;;;;;;5.45;4.97;;;10.50;99.60;;;;;;5043659;28;20198;-65
2021/05/09 04:29:06;;;;;;;5.18;4.78;;;10.60;99.40;;;;;;5042402;28;20546;-65
2021/05/09 04:31:32;;;;;;;4.88;4.47;;;10.80;99.60;;;;;;5042617;28;20300;-65
2021/05/09 04:33:59;;;;;;;4.38;3.97;;;11.30;99.20;;;;;;5037954;28;20297;-65
2021/05/09 04:36:26;;;;;;;4.70;4.30;;;11.50;97.90;;;;;;5036159;28;20741;-65
2021/05/09 04:38:52;;;;;;;4.32;3.92;;;11.70;97.60;;;;;;5040838;28;20284;-64
2021/05/09 04:41:19;;;;;;;4.60;4.30;;;12.10;97.00;;;;;;5050145;28;20198;-65
2021/05/09 04:43:45;;;;;;;3.97;3.67;;;12.40;96.20;;;;;;5041554;28;20629;-65
2021/05/09 04:46:12;;;;;;;4.35;4.05;;;12.60;95.90;;;;;;5042067;28;20659;-65
2021/05/09 04:48:39;;;;;;;4.40;4.00;;;12.70;95.10;;;;;;5030089;28;20670;-65
2021/05/09 04:51:05;;;;;;;4.43;4.10;;;12.70;94.80;;;;;;5042832;28;20202;-65
2021/05/09 04:53:33;;;;;;;4.35;3.95;;;12.60;95.40;;;;;;5044727;28;20198;-65
2021/05/09 04:56:01;;;;;;;4.35;3.95;;;12.70;95.10;;;;;;5037351;28;20216;-65
2021/05/09 04:58:29;;;;;;;4.90;3.97;;;12.60;95.20;;;;;;5041352;28;20208;-65
2021/05/09 05:00:58;;;;;;;4.05;3.70;;;12.60;95.60;;;;;;5035744;28;20221;-65
2021/05/09 05:03:25;;;;;;;4.30;3.90;;;12.70;95.60;;;;;;5042934;28;20225;-65
2021/05/09 05:05:52;;;;;;;4.50;3.88;;;12.70;95.30;;;;;;5044768;28;20284;-65
2021/05/09 05:08:19;;;;;;;4.68;4.38;;;12.90;94.70;;;;;;5043154;28;20901;-65
2021/05/09 05:10:46;;;;;;;3.75;3.45;;;12.90;94.80;;;;;;5037911;28;20293;-65
2021/05/09 05:13:20;;;;;;;3.90;3.50;;;13.30;95.00;;;;;;5044514;28;20717;-65
2021/05/09 05:15:47;;;;;;;3.60;3.30;;;13.50;94.00;;;;;;5024397;28;20205;-65
2021/05/09 05:18:14;;;;;;;4.47;3.67;;;13.60;94.00;;;;;;5042579;28;20198;-65
2021/05/09 05:20:42;;;;;;;3.75;3.45;;;13.50;94.00;;;;;;5043202;28;20209;-65
2021/05/09 05:23:08;;;;;;;3.80;3.50;;;13.50;93.90;;;;;;5041486;28;20276;-65
2021/05/09 05:25:34;;;;;;;4.03;3.72;;;13.60;93.80;;;;;;5040502;28;20212;-65
2021/05/09 05:28:01;;;;;;;3.75;3.45;;;13.40;94.20;;;;;;5040224;28;20329;-65
2021/05/09 05:30:28;;;;;;;4.40;4.00;;;13.50;94.00;;;;;;5033946;28;20264;-65
2021/05/09 05:32:54;;;;;;;4.15;3.85;;;13.30;93.90;;;;;;5035841;28;20208;-65
2021/05/09 05:35:21;;;;;;;4.25;3.60;;;13.50;94.20;;;;;;5039830;28;20258;-65
2021/05/09 05:37:48;;;;;;;4.50;4.15;;;14.20;93.40;;;;;;5047230;28;20233;-65
2021/05/09 05:40:15;;;;;;;3.80;3.50;;;15.60;92.60;;;;;;5040614;28;20292;-65
2021/05/09 05:42:41;;;;;;;4.30;3.90;;;17.50;89.20;;;;;;5042374;28;20671;-65
2021/05/09 05:45:09;;;;;;;4.00;3.70;;;17.80;84.70;;;;;;5039196;28;20209;-65
2021/05/09 05:47:35;;;;;;;4.28;3.88;;;18.10;82.10;;;;;;5040167;28;20202;-65
2021/05/09 05:50:01;;;;;;;3.40;3.10;;;17.80;82.80;;;;;;5049093;28;20762;-65
2021/05/09 05:52:28;;;;;;;4.30;3.90;;;18.80;80.60;;;;;;5041992;28;20210;-63
2021/05/09 05:54:55;;;;;;;3.80;3.50;;;20.30;77.80;;;;;;5032216;28;20727;-63
2021/05/09 05:57:21;;;;;;;4.07;3.77;;;21.20;72.60;;;;;;5048373;28;21555;-63
2021/05/09 05:59:47;;;;;;;3.67;3.37;;;23.00;69.20;;;;;;5041447;28;20633;-63
2021/05/09 06:02:14;;;;;;;4.20;3.90;;;24.30;65.30;;;;;;5046213;28;20638;-63
2021/05/09 06:04:41;;;;;;;3.70;3.50;;;24.70;62.00;;;;;;5029994;28;20843;-63
2021/05/09 06:07:08;;;;;;;4.17;3.87;;;25.50;59.40;;;;;;5044811;28;20670;-63
2021/05/09 06:09:35;;;;;;;4.03;3.73;;;26.20;58.00;;;;;;5042835;28;20652;-63
2021/05/09 06:12:02;;;;;;;3.30;3.10;;;26.90;56.60;;;;;;5042379;28;20631;-63
2021/05/09 06:14:29;;;;;;;3.23;3.03;;;27.70;54.20;;;;;;5035875;28;20744;-63
2021/05/09 06:16:55;;;;;;;3.00;2.80;;;27.20;54.20;;;;;;5042196;28;20646;-63
2021/05/09 06:19:22;;;;;;;3.10;2.90;;;28.20;52.70;;;;;;5041282;28;20629;-63
2021/05/09 06:21:48;;;;;;;3.00;2.80;;;28.40;51.40;;;;;;5043905;28;20627;-63
2021/05/09 06:24:14;;;;;;;3.30;3.00;;;27.30;52.70;;;;;;5053048;28;20645;-63
2021/05/09 06:26:41;;;;;;;3.00;2.80;;;26.70;52.90;;;;;;5057919;28;20643;-63
2021/05/09 06:29:09;;;;;;;2.70;2.50;;;27.80;51.90;;;;;;5045473;28;20726;-63
2021/05/09 06:31:35;;;;;;;2.53;2.43;;;27.80;51.50;;;;;;5047635;28;20636;-63
2021/05/09 06:34:02;;;;;;;2.80;2.60;;;28.00;52.20;;;;;;5040235;28;20752;-63
2021/05/09 06:36:28;;;;;;;3.00;2.80;;;28.80;50.60;;;;;;5045040;28;20671;-63
2021/05/09 06:38:54;;;;;;;2.90;2.70;;;29.10;50.20;;;;;;5057713;28;21021;-63
2021/05/09 06:41:21;;;;;;;2.83;2.63;;;28.60;50.70;;;;;;5044468;28;20671;-63
2021/05/09 06:43:51;;;;;;;2.70;2.60;;;29.30;49.60;;;;;;5049926;28;20727;-63
2021/05/09 06:46:19;;;;;;;2.70;2.60;;;28.90;49.00;;;;;;5046011;28;20624;-63
2021/05/09 06:48:45;;;;;;;2.80;2.70;;;28.70;49.60;;;;;;5044935;28;20783;-63
2021/05/09 06:51:11;;;;;;;2.70;2.60;;;27.90;49.80;;;;;;5051021;28;20715;-63
2021/05/09 06:53:38;;;;;;;3.37;3.07;;;28.10;51.20;;;;;;5046761;28;20683;-64
2021/05/09 06:56:04;;;;;;;2.13;2.03;;;28.50;51.90;;;;;;5045861;28;20725;-63
2021/05/09 06:58:31;;;;;;;2.47;2.37;;;29.20;49.20;;;;;;5043587;28;20726;-63
2021/05/09 07:00:58;;;;;;;2.97;2.73;;;28.70;48.10;;;;;;5059557;28;21042;-63
2021/05/09 07:03:25;;;;;;;2.80;2.60;;;28.80;50.70;;;;;;5038987;28;20634;-63
2021/05/09 07:05:51;;;;;;;2.40;2.30;;;29.00;48.50;;;;;;5041752;28;20727;-64
2021/05/09 07:08:18;;;;;;;2.73;2.63;;;29.10;48.20;;;;;;5042523;28;20620;-63
2021/05/09 07:10:47;;;;;;;2.73;2.53;;;29.90;48.10;;;;;;5042409;28;20879;-63
2021/05/09 07:13:14;;;;;;;2.30;2.20;;;30.00;47.10;;;;;;5043240;28;20687;-63
2021/05/09 07:15:42;;;;;;;2.80;2.70;;;30.40;47.00;;;;;;5042752;28;20655;-64
2021/05/09 07:18:12;;;;;;;2.93;2.33;;;30.90;47.00;;;;;;5044364;28;20632;-64
2021/05/09 07:20:42;;;;;;;2.57;2.37;;;29.90;46.50;;;;;;5044273;28;20639;-64
2021/05/09 07:23:11;;;;;;;3.07;2.77;;;31.00;45.90;;;;;;5041157;28;21213;-63
2021/05/09 07:25:37;;;;;;;3.00;2.90;;;31.00;45.50;;;;;;5045931;28;20770;-63
2021/05/09 07:28:05;;;;;;;2.40;2.20;;;29.00;47.10;;;;;;5046352;28;21037;-63
2021/05/09 07:30:32;;;;;;;2.37;2.27;;;30.90;46.30;;;;;;5041802;28;20631;-60
2021/05/09 07:32:58;;;;;;;2.27;2.17;;;29.70;47.70;;;;;;5046338;28;21180;-62
2021/05/09 07:35:25;;;;;;;2.93;2.73;;;31.20;45.40;;;;;;5039951;28;21209;-62
2021/05/09 07:37:52;;;;;;;2.73;2.63;;;31.30;47.40;;;;;;5048324;28;20731;-62
2021/05/09 07:40:19;;;;;;;2.90;2.70;;;32.00;45.50;;;;;;5044676;28;20632;-62
2021/05/09 07:42:45;;;;;;;3.27;3.00;;;31.90;45.00;;;;;;5046581;28;20635;-62
2021/05/09 07:45:16;;;;;;;2.73;2.63;;;31.50;45.30;;;;;;5046523;28;20635;-62
2021/05/09 07:47:42;;;;;;;2.77;2.67;;;31.50;45.60;;;;;;5045821;28;20702;-62
2021/05/09 07:50:09;;;;;;;3.07;2.87;;;30.80;47.80;;;;;;5040856;28;20647;-62
2021/05/09 07:52:37;;;;;;;3.63;2.60;;;31.10;47.10;;;;;;5045759;28;20735;-62
2021/05/09 07:55:05;;;;;;;3.00;2.80;;;29.70;47.90;;;;;;5047946;28;20787;-62
2021/05/09 07:57:31;;;;;;;2.50;2.30;;;28.70;50.00;;;;;;5043208;28;21375;-62
2021/05/09 07:59:58;;;;;;;2.70;2.60;;;27.50;50.90;;;;;;5044845;28;20637;-62
2021/05/09 08:02:24;;;;;;;3.00;2.80;;;26.30;54.80;;;;;;5040905;28;20640;-62
2021/05/09 08:04:50;;;;;;;2.33;2.23;;;26.50;53.30;;;;;;5041916;28;20688;-62
2021/05/09 08:07:17;;;;;;;2.87;2.73;;;27.00;53.40;;;;;;5047239;28;20645;-62
2021/05/09 08:09:43;;;;;;;2.70;2.50;;;26.80;55.10;;;;;;5042093;28;20641;-62
2021/05/09 08:12:10;;;;;;;3.60;3.40;;;26.80;55.00;;;;;;5036784;28;20641;-62
2021/05/09 08:14:37;;;;;;;2.80;2.60;;;26.10;55.80;;;;;;5041982;28;20680;-62
2021/05/09 08:17:03;;;;;;;3.20;2.60;;;25.90;56.00;;;;;;5042464;28;21226;-62
2021/05/09 08:19:30;;;;;;;2.90;2.70;;;27.00;55.50;;;;;;5044524;28;20660;-62
2021/05/09 08:21:56;;;;;;;3.00;2.80;;;26.10;55.90;;;;;;5052628;28;20627;-62
2021/05/09 08:24:22;;;;;;;2.93;2.73;;;26.40;55.50;;;;;;5049488;28;21072;-61
2021/05/09 08:26:49;;;;;;;3.90;3.50;;;26.50;56.40;;;;;;5045703;28;20634;-62
2021/05/09 08:29:16;;;;;;;2.70;2.60;;;27.30;54.30;;;;;;5041319;28;20737;-62
2021/05/09 08:31:42;;;;;;;2.93;2.73;;;26.80;54.30;;;;;;5045124;28;20630;-62
2021/05/09 08:34:09;;;;;;;2.83;2.63;;;26.50;57.20;;;;;;5045817;28;21033;-62
2021/05/09 08:36:35;;;;;;;3.27;2.97;;;26.20;57.80;;;;;;5045853;28;20638;-62
2021/05/09 08:39:01;;;;;;;3.67;3.37;;;25.50;56.80;;;;;;5055217;28;20672;-62
2021/05/09 08:41:28;;;;;;;3.20;3.00;;;24.90;58.00;;;;;;5048443;28;20625;-62
2021/05/09 08:43:54;;;;;;;2.73;2.53;;;24.90;58.70;;;;;;5041819;28;20783;-62
2021/05/09 08:46:22;;;;;;;3.30;3.10;;;26.20;58.50;;;;;;5046030;28;20712;-62
2021/05/09 08:48:51;;;;;;;2.50;2.40;;;27.50;54.90;;;;;;5044307;28;21206;-62
2021/05/09 08:51:17;;;;;;;2.73;2.53;;;27.70;55.40;;;;;;5038561;28;21226;-62
2021/05/09 08:53:46;;;;;;;2.30;2.20;;;28.70;52.20;;;;;;5043042;28;20729;-62
2021/05/09 08:56:13;;;;;;;2.37;2.27;;;29.00;51.20;;;;;;5044261;28;20625;-62
2021/05/09 08:58:39;;;;;;;2.57;2.40;;;29.30;51.00;;;;;;5042956;28;20770;-62
2021/05/09 09:01:06;;;;;;;2.37;2.17;;;30.20;49.50;;;;;;5036908;28;20755;-62
2021/05/09 09:03:35;;;;;;;1.90;1.80;;;30.60;49.50;;;;;;5041228;28;20621;-62
2021/05/09 09:06:03;;;;;;;2.20;2.10;;;30.70;48.80;;;;;;5040479;28;20632;-62
2021/05/09 09:08:29;;;;;;;1.90;1.80;;;30.60;49.40;;;;;;5042933;28;20636;-62
2021/05/09 09:10:55;;;;;;;2.17;2.07;;;31.00;49.80;;;;;;5043053;28;21224;-61
2021/05/09 09:13:24;;;;;;;2.23;2.03;;;31.90;45.60;;;;;;5042001;28;20679;-62
2021/05/09 09:15:55;;;;;;;1.97;1.87;;;32.20;46.00;;;;;;5040823;28;20719;-62
2021/05/09 09:18:29;;;;;;;2.13;2.00;;;32.10;45.20;;;;;;5035330;28;20643;-62
2021/05/09 09:20:56;;;;;;;2.37;2.17;;;31.50;45.70;;;;;;5040372;28;20633;-63
2021/05/09 09:23:22;;;;;;;2.17;2.07;;;32.40;45.20;;;;;;5039578;28;20651;-62
2021/05/09 09:25:49;;;;;;;2.20;2.10;;;32.40;44.10;;;;;;5031096;28;21076;-61
2021/05/09 09:28:18;;;;;;;2.80;1.80;;;32.00;44.50;;;;;;5031012;28;20751;-61
2021/05/09 09:30:53;;;;;;;2.00;1.90;;;32.20;44.30;;;;;;5032079;28;20652;-61
2021/05/09 09:33:20;;;;;;;3.70;1.70;;;32.50;44.70;;;;;;5032507;28;20679;-62
2021/05/09 09:35:48;;;;;;;1.80;1.70;;;32.50;43.90;;;;;;5043161;28;20748;-62
2021/05/09 09:38:26;;;;;;;2.10;2.00;;;32.50;44.70;;;;;;5043667;28;21292;-62
2021/05/09 09:41:10;;;;;;;2.33;2.20;;;32.70;44.90;;;;;;5046701;28;20628;-62
2021/05/09 09:43:37;;;;;;;1.93;1.83;;;32.40;45.40;;;;;;5042884;28;20687;-62
2021/05/09 09:46:04;;;;;;;1.70;1.60;;;32.20;47.40;;;;;;5047722;28;20707;-62
2021/05/09 09:48:38;;;;;;;1.80;1.70;;;31.70;45.10;;;;;;5045310;28;20667;-62
2021/05/09 09:51:05;;;;;;;2.17;2.07;;;32.20;44.70;;;;;;5045392;28;20735;-62
2021/05/09 09:53:34;;;;;;;1.80;1.70;;;32.30;46.00;;;;;;5044011;28;20705;-62
2021/05/09 09:56:02;;;;;;;1.50;1.50;;;32.00;42.60;;;;;;5046134;28;20640;-62
2021/05/09 09:58:46;;;;;;;1.47;1.40;;;32.20;44.70;;;;;;5044712;28;20627;-62
2021/05/09 10:01:14;;;;;;;2.30;1.80;;;32.20;40.80;;;;;;5046929;28;20751;-62
2021/05/09 10:03:40;;;;;;;1.60;1.50;;;32.40;39.80;;;;;;5047132;28;20631;-63
2021/05/09 10:06:07;;;;;;;3.97;3.27;;;32.10;40.50;;;;;;5047241;28;20636;-63
2021/05/09 10:08:35;;;;;;;8.80;6.63;;;31.50;41.40;;;;;;5046249;28;20742;-62
2021/05/09 10:11:03;;;;;;;4.70;3.13;;;31.60;41.70;;;;;;5047562;28;20640;-62
2021/05/09 10:13:30;;;;;;;8.50;7.90;;;31.80;41.00;;;;;;5047998;28;20784;-63
2021/05/09 10:15:57;;;;;;;2.10;2.00;;;30.60;41.40;;;;;;5047074;28;20632;-63
2021/05/09 10:18:25;;;;;;;2.03;1.93;;;30.70;42.10;;;;;;5045340;28;21043;-63
2021/05/09 10:20:52;;;;;;;1.63;1.53;;;31.10;42.60;;;;;;5044731;28;20723;-63
2021/05/09 10:23:18;;;;;;;2.40;2.20;;;31.30;40.20;;;;;;5041716;28;20715;-62
2021/05/09 10:25:48;;;;;;;1.50;1.40;;;31.50;41.80;;;;;;5040360;28;20709;-62
2021/05/09 10:28:16;;;;;;;1.70;1.60;;;31.10;44.20;;;;;;5042956;28;20650;-64
2021/05/09 10:30:45;;;;;;;1.80;1.50;;;31.00;46.80;;;;;;5046038;28;21134;-63
2021/05/09 10:33:31;;;;;;;1.73;1.63;;;30.80;44.80;;;;;;5045415;28;20651;-63
2021/05/09 10:35:58;;;;;;;1.73;1.60;;;31.40;43.40;;;;;;5042150;28;20685;-63
2021/05/09 10:38:24;;;;;;;1.33;1.33;;;31.30;42.40;;;;;;5039640;28;20626;-63
2021/05/09 10:41:10;;;;;;;1.47;1.47;;;30.70;45.00;;;;;;5045086;28;20616;-63
2021/05/09 10:43:37;;;;;;;1.73;1.63;;;30.90;45.10;;;;;;5042667;28;21283;-63
2021/05/09 10:46:04;;;;;;;2.30;2.20;;;31.00;43.20;;;;;;5039709;28;21374;-63
2021/05/09 10:48:34;;;;;;;1.30;1.20;;;31.60;43.00;;;;;;5041576;28;20632;-63
2021/05/09 10:51:28;;;;;;;1.53;1.20;;;31.40;40.20;;;;;;5039624;28;20743;-63
2021/05/09 10:54:20;;;;;;;1.67;1.57;;;31.20;40.50;;;;;;5042139;28;20750;-63
2021/05/09 10:56:47;;;;;;;1.57;1.47;;;31.20;42.10;;;;;;5046735;28;20698;-61
2021/05/09 10:59:13;;;;;;;1.90;1.80;;;30.70;41.30;;;;;;5046748;28;20788;-61
2021/05/09 11:01:40;;;;;;;1.63;1.53;;;30.70;41.80;;;;;;5046743;28;20689;-62
2021/05/09 11:04:06;;;;;;;1.80;1.70;;;31.00;40.70;;;;;;5045830;28;20789;-62
2021/05/09 11:06:44;;;;;;;1.40;1.40;;;30.80;42.70;;;;;;5045927;28;20639;-62
2021/05/09 11:09:13;;;;;;;2.37;1.70;;;30.40;42.60;;;;;;5046616;28;21542;-62
2021/05/09 11:12:01;;;;;;;1.33;1.33;;;30.10;42.10;;;;;;5055099;28;20648;-62
2021/05/09 11:14:32;;;;;;;1.53;1.53;;;30.20;43.40;;;;;;5045801;28;20774;-62
2021/05/09 11:17:17;;;;;;;1.80;1.70;;;30.10;41.60;;;;;;5044730;28;20858;-62
2021/05/09 11:19:49;;;;;;;1.47;1.37;;;30.10;42.70;;;;;;5046332;28;20631;-62
2021/05/09 11:22:23;;;;;;;1.90;1.70;;;29.90;43.20;;;;;;5046170;28;20620;-62
2021/05/09 11:25:00;;;;;;;2.60;1.90;;;29.80;41.90;;;;;;5045712;28;20627;-62
2021/05/09 11:27:31;;;;;;;1.90;1.80;;;29.70;44.00;;;;;;5043518;28;20603;-62
2021/05/09 11:29:58;;;;;;;2.13;1.60;;;29.70;42.40;;;;;;5042864;28;20630;-62
2021/05/09 11:32:25;;;;;;;1.83;1.73;;;29.70;43.90;;;;;;5049300;28;20706;-62
2021/05/09 11:34:53;;;;;;;1.90;1.80;;;29.50;43.10;;;;;;5045565;28;21056;-62
2021/05/09 11:37:23;;;;;;;3.20;1.70;;;29.50;42.30;;;;;;5044453;28;20650;-62
2021/05/09 11:39:49;;;;;;;1.50;1.40;;;29.40;41.00;;;;;;5046193;28;20714;-62
2021/05/09 11:42:16;;;;;;;1.60;1.50;;;29.60;43.50;;;;;;5041042;28;20751;-62
2021/05/09 11:44:44;;;;;;;3.43;1.77;;;29.80;42.60;;;;;;5044587;28;20785;-62
2021/05/09 11:47:12;;;;;;;1.63;1.53;;;29.70;42.70;;;;;;5045153;28;21000;-62
2021/05/09 11:49:40;;;;;;;1.50;1.40;;;29.70;43.50;;;;;;5044604;28;20615;-62
2021/05/09 11:52:09;;;;;;;2.40;1.90;;;29.70;40.80;;;;;;5044507;28;20618;-62
2021/05/09 11:54:37;;;;;;;1.93;1.70;;;29.50;40.40;;;;;;5043899;28;20668;-62
2021/05/09 11:57:06;;;;;;;1.30;1.30;;;29.40;42.20;;;;;;5044865;28;20697;-62
2021/05/09 11:59:38;;;;;;;1.80;1.70;;;29.50;41.30;;;;;;5044112;28;20697;-63
2021/05/09 12:02:22;;;;;;;1.80;1.70;;;29.70;45.00;;;;;;5039489;28;20655;-63
2021/05/09 12:04:51;;;;;;;1.40;1.30;;;29.90;42.10;;;;;;5043967;28;20606;-62
2021/05/09 12:07:19;;;;;;;1.47;1.47;;;29.90;41.50;;;;;;5045701;28;20606;-64
2021/05/09 12:09:50;;;;;;;2.27;2.13;;;29.70;39.60;;;;;;5043659;28;20610;-64
2021/05/09 12:12:21;;;;;;;2.20;2.10;;;29.70;41.20;;;;;;5026163;28;20734;-63
2021/05/09 12:14:49;;;;;;;1.63;1.53;;;29.70;41.40;;;;;;5043989;28;21434;-63
2021/05/09 12:17:25;;;;;;;1.40;1.30;;;29.80;41.90;;;;;;5039464;28;20622;-61
2021/05/09 12:19:53;;;;;;;1.80;1.70;;;29.70;41.70;;;;;;5038324;28;21259;-62
2021/05/09 12:22:20;;;;;;;1.57;1.50;;;29.90;43.60;;;;;;5044731;28;20663;-62
2021/05/09 12:24:48;;;;;;;1.97;1.73;;;29.80;40.00;;;;;;5038524;28;20734;-62
2021/05/09 12:27:15;;;;;;;1.60;1.50;;;29.90;40.10;;;;;;5041986;28;21238;-65
2021/05/09 12:29:46;;;;;;;1.77;1.67;;;29.80;41.00;;;;;;5043057;28;20636;-64
2021/05/09 12:32:25;;;;;;;1.90;1.80;;;29.80;42.80;;;;;;5039581;28;20725;-64
2021/05/09 12:35:06;;;;;;;1.67;1.63;;;29.80;41.40;;;;;;5043136;28;20646;-65
2021/05/09 12:37:34;;;;;;;2.20;1.90;;;29.80;40.90;;;;;;5044777;28;20993;-65
2021/05/09 12:40:19;;;;;;;1.37;1.37;;;29.80;42.60;;;;;;5039995;28;20747;-65
2021/05/09 12:43:00;;;;;;;1.63;1.53;;;29.80;40.40;;;;;;5041255;28;20711;-65
2021/05/09 12:45:28;;;;;;;2.00;1.90;;;29.70;41.90;;;;;;5041419;28;20683;-64
2021/05/09 12:48:03;;;;;;;1.53;1.43;;;29.60;42.50;;;;;;5036074;28;20642;-65
2021/05/09 12:50:50;;;;;;;1.57;1.47;;;29.80;41.70;;;;;;5044096;28;20739;-65
2021/05/09 12:53:17;;;;;;;1.40;1.40;;;29.90;40.10;;;;;;5044199;28;20603;-64